Time;durP1;ratioP1;P1;durP2;ratioP2;P2;SDS_P1;SDS_P2;PMS_P1;PMS_P2;Temp;Humidity;BMP_temperature;BMP_pressure;BME280_temperature;BME280_humidity;BME280_pressure;Samples;Min_cycle;Max_cycle;Signal;HPM_P1;HPM_P2
2022/09/06 00:02:19;;;;;;;;;;;22.00;63.10;;;;;;5051378;28;1406;-64
2022/09/06 00:04:44;;;;;;;;;;;22.00;63.10;;;;;;5052785;28;1329;-63
2022/09/06 00:07:09;;;;;;;;;;;22.00;63.10;;;;;;5052384;28;1910;-64
2022/09/06 00:09:35;;;;;;;;;;;22.00;63.10;;;;;;5053063;28;1256;-64
2022/09/06 00:12:00;;;;;;;;;;;22.00;63.10;;;;;;5046446;28;1174;-63
2022/09/06 00:14:26;;;;;;;;;;;22.00;63.10;;;;;;5052502;28;1250;-64
2022/09/06 00:16:51;;;;;;;;;;;22.00;63.20;;;;;;5052813;28;1307;-64
2022/09/06 00:19:17;;;;;;;;;;;22.00;63.20;;;;;;5052290;28;1286;-64
2022/09/06 00:21:42;;;;;;;;;;;22.00;63.20;;;;;;5051720;28;1414;-64
2022/09/06 00:24:08;;;;;;;;;;;22.00;63.20;;;;;;5034357;28;1303;-64
2022/09/06 00:26:34;;;;;;;;;;;22.00;63.20;;;;;;5051050;28;1894;-64
2022/09/06 00:28:59;;;;;;;;;;;22.00;63.20;;;;;;5042822;28;1365;-64
2022/09/06 00:31:25;;;;;;;;;;;22.00;63.20;;;;;;5051604;28;1328;-64
2022/09/06 00:33:50;;;;;;;;;;;22.00;63.20;;;;;;5051864;28;1384;-64
2022/09/06 00:36:16;;;;;;;;;;;22.00;63.20;;;;;;5051916;28;1388;-63
2022/09/06 00:38:41;;;;;;;;;;;22.00;63.20;;;;;;5051258;28;1268;-64
2022/09/06 00:41:07;;;;;;;;;;;22.00;63.20;;;;;;5051667;28;1276;-64
2022/09/06 00:43:33;;;;;;;;;;;22.00;64.00;;;;;;5046727;28;1392;-64
2022/09/06 00:45:58;;;;;;;;;;;22.00;63.30;;;;;;5049946;28;1226;-64
2022/09/06 00:48:24;;;;;;;;;;;22.00;63.30;;;;;;5042410;28;1898;-64
2022/09/06 00:50:50;;;;;;;;;;;22.00;63.30;;;;;;5041630;28;1405;-64
2022/09/06 00:53:16;;;;;;;;;;;22.00;63.30;;;;;;5046594;28;1393;-64
2022/09/06 00:55:41;;;;;;;;;;;22.00;63.30;;;;;;5049779;28;1326;-66
2022/09/06 00:58:07;;;;;;;;;;;22.00;63.30;;;;;;5042026;28;1266;-64
2022/09/06 01:00:33;;;;;;;;;;;22.00;63.30;;;;;;5042062;28;1274;-64
2022/09/06 01:02:58;;;;;;;;;;;22.00;63.30;;;;;;5041277;28;1284;-63
2022/09/06 01:05:25;;;;;;;;;;;22.00;63.40;;;;;;5048721;28;1216;-64
2022/09/06 01:07:53;;;;;;;;;;;22.00;63.30;;;;;;5045535;28;2286;-64
2022/09/06 01:10:29;;;;;;;;;;;22.00;63.30;;;;;;5043597;28;1099;-64
2022/09/06 01:13:14;;;;;;;;;;;22.00;63.40;;;;;;5050188;28;1306;-64
2022/09/06 01:15:42;;;;;;;;;;;22.00;63.40;;;;;;5051937;28;1364;-64
2022/09/06 01:18:22;;;;;;;;;;;22.00;63.40;;;;;;5052077;28;1252;-63
2022/09/06 01:20:54;;;;;;;;;;;22.00;63.40;;;;;;5052094;28;1306;-64
2022/09/06 01:23:37;;;;;;;;;;;22.00;63.50;;;;;;5050562;28;1352;-64
2022/09/06 01:26:21;;;;;;;;;;;22.00;63.50;;;;;;5051315;28;1326;-64
2022/09/06 01:28:47;;;;;;;;;;;22.00;63.40;;;;;;5043374;28;1252;-64
2022/09/06 01:31:23;;;;;;;;;;;22.00;63.50;;;;;;5054305;28;1144;-64
2022/09/06 01:34:09;;;;;;;;;;;22.00;63.50;;;;;;5071789;22;2039;-69
2022/09/06 01:36:37;;;;;;;;;;;22.00;63.50;;;;;;5085407;28;1124;-69
2022/09/06 01:39:03;;;;;;;;;;;22.00;63.50;;;;;;5089247;28;1401;-69
2022/09/06 01:41:28;;;;;;;;;;;22.00;63.50;;;;;;5095084;28;1192;-69
2022/09/06 01:43:54;;;;;;;;;;;22.00;63.50;;;;;;5090885;28;1184;-69
2022/09/06 01:46:28;;;;;;;;;;;22.00;63.50;;;;;;5074145;28;1910;-69
2022/09/06 01:48:57;;;;;;;;;;;22.00;63.50;;;;;;5074355;28;1939;-69
2022/09/06 01:51:28;;;;;;;;;;;22.00;63.50;;;;;;5069456;28;1085;-68
2022/09/06 01:54:02;;;;;;;;;;;22.00;63.50;;;;;;5073982;28;1311;-70
2022/09/06 01:56:37;;;;;;;;;;;22.00;63.50;;;;;;5078306;28;1134;-70
2022/09/06 01:59:21;;;;;;;;;;;22.00;63.60;;;;;;5075188;28;1509;-70
2022/09/06 02:02:05;;;;;;;;;;;22.00;63.60;;;;;;5055146;28;1302;-70
2022/09/06 02:04:33;;;;;;;;;;;22.00;63.60;;;;;;5075326;28;1303;-70
2022/09/06 02:07:02;;;;;;;;;;;22.00;63.60;;;;;;5074927;28;1966;-70
2022/09/06 02:09:29;;;;;;;;;;;22.00;63.60;;;;;;5070000;28;1429;-70
2022/09/06 02:11:56;;;;;;;;;;;22.00;63.60;;;;;;5071900;28;1266;-70
2022/09/06 02:14:23;;;;;;;;;;;22.00;63.60;;;;;;5073768;28;1382;-70
2022/09/06 02:16:48;;;;;;;;;;;22.00;63.60;;;;;;5074004;28;1340;-70
2022/09/06 02:19:16;;;;;;;;;;;22.00;63.60;;;;;;5080138;28;1263;-70
2022/09/06 02:21:42;;;;;;;;;;;22.00;63.60;;;;;;5072997;28;1324;-70
2022/09/06 02:24:08;;;;;;;;;;;22.00;63.60;;;;;;5073755;28;1346;-70
2022/09/06 02:26:34;;;;;;;;;;;22.00;63.70;;;;;;5073585;28;1953;-70
2022/09/06 02:29:00;;;;;;;;;;;22.00;63.60;;;;;;5074165;28;1257;-69
2022/09/06 02:31:28;;;;;;;;;;;22.00;63.70;;;;;;5056266;28;1376;-70
2022/09/06 02:33:56;;;;;;;;;;;22.00;63.60;;;;;;5052946;28;1454;-71
2022/09/06 02:36:21;;;;;;;;;;;22.00;63.70;;;;;;5072756;28;1289;-71
2022/09/06 02:38:47;;;;;;;;;;;22.00;63.70;;;;;;5073523;28;1139;-72
2022/09/06 02:41:17;;;;;;;;;;;22.00;63.70;;;;;;5072723;28;941;-72
2022/09/06 02:43:42;;;;;;;;;;;22.00;63.70;;;;;;5073928;28;1270;-71
2022/09/06 02:46:08;;;;;;;;;;;22.00;63.70;;;;;;5070168;28;1399;-71
2022/09/06 02:48:33;;;;;;;;;;;22.00;63.70;;;;;;5070283;28;1910;-71
2022/09/06 02:51:01;;;;;;;;;;;22.00;63.70;;;;;;5072809;28;1310;-71
2022/09/06 02:53:27;;;;;;;;;;;22.00;63.70;;;;;;5072391;28;1330;-71
2022/09/06 02:55:52;;;;;;;;;;;22.00;63.70;;;;;;5074176;28;1252;-71
2022/09/06 02:58:17;;;;;;;;;;;22.00;63.70;;;;;;5074255;28;1126;-71
2022/09/06 03:00:43;;;;;;;;;;;22.00;63.70;;;;;;5072878;28;1189;-71
2022/09/06 03:03:08;;;;;;;;;;;22.00;63.80;;;;;;5089260;28;1282;-71
2022/09/06 03:05:34;;;;;;;;;;;22.00;63.70;;;;;;5073679;28;1410;-70
2022/09/06 03:07:59;;;;;;;;;;;22.00;63.80;;;;;;5073638;28;1898;-69
2022/09/06 03:10:25;;;;;;;;;;;22.00;63.80;;;;;;5073742;28;1304;-69
2022/09/06 03:12:51;;;;;;;;;;;22.00;63.80;;;;;;5071704;28;1334;-69
2022/09/06 03:15:16;;;;;;;;;;;22.00;63.80;;;;;;5073372;28;1423;-69
2022/09/06 03:17:42;;;;;;;;;;;22.00;63.80;;;;;;5072420;28;1322;-69
2022/09/06 03:20:10;;;;;;;;;;;22.00;63.80;;;;;;5072550;28;1155;-70
2022/09/06 03:22:36;;;;;;;;;;;22.00;63.80;;;;;;5072902;28;1421;-68
2022/09/06 03:25:02;;;;;;;;;;;22.00;63.80;;;;;;5071933;28;1346;-68
2022/09/06 03:27:28;;;;;;;;;;;22.00;63.80;;;;;;5068692;28;1889;-68
2022/09/06 03:29:53;;;;;;;;;;;22.00;63.80;;;;;;5052482;28;1352;-68
2022/09/06 03:32:19;;;;;;;;;;;22.00;63.80;;;;;;5065658;28;1513;-68
2022/09/06 03:34:44;;;;;;;;;;;22.00;63.80;;;;;;5073125;28;1484;-67
2022/09/06 03:37:09;;;;;;;;;;;22.00;63.80;;;;;;5073425;28;1087;-68
2022/09/06 03:39:35;;;;;;;;;;;22.00;63.80;;;;;;5072911;28;1347;-68
2022/09/06 03:42:00;;;;;;;;;;;22.00;63.80;;;;;;5072431;28;1265;-70
2022/09/06 03:44:26;;;;;;;;;;;22.00;63.80;;;;;;5072071;28;1360;-69
2022/09/06 03:46:51;;;;;;;;;;;22.00;63.90;;;;;;5073492;28;1961;-69
2022/09/06 03:49:17;;;;;;;;;;;22.00;63.90;;;;;;5072790;28;1346;-69
2022/09/06 03:51:42;;;;;;;;;;;22.00;63.90;;;;;;5072730;28;1107;-70
2022/09/06 03:54:08;;;;;;;;;;;22.00;63.90;;;;;;5071627;28;1340;-70
2022/09/06 03:56:33;;;;;;;;;;;22.00;63.90;;;;;;5072785;28;1286;-70
2022/09/06 03:58:59;;;;;;;;;;;22.00;63.90;;;;;;5073098;28;1389;-69
2022/09/06 04:01:24;;;;;;;;;;;22.00;63.90;;;;;;5071409;28;1142;-69
2022/09/06 04:03:50;;;;;;;;;;;22.00;63.90;;;;;;5073079;28;1266;-69
2022/09/06 04:06:15;;;;;;;;;;;22.00;63.90;;;;;;5072930;28;1083;-68
2022/09/06 04:08:41;;;;;;;;;;;22.00;63.90;;;;;;5072569;28;1910;-70
2022/09/06 04:11:06;;;;;;;;;;;22.00;63.90;;;;;;5072415;28;1237;-70
2022/09/06 04:13:32;;;;;;;;;;;22.00;63.90;;;;;;5072362;28;1297;-70
2022/09/06 04:15:57;;;;;;;;;;;22.00;64.00;;;;;;5072888;28;1301;-70
2022/09/06 04:18:23;;;;;;;;;;;22.00;63.90;;;;;;5071605;28;1302;-70
2022/09/06 04:20:49;;;;;;;;;;;22.00;63.90;;;;;;5071382;28;1360;-70
2022/09/06 04:23:14;;;;;;;;;;;22.00;64.00;;;;;;5070976;28;1167;-70
2022/09/06 04:25:40;;;;;;;;;;;22.00;64.00;;;;;;5070937;28;1347;-70
2022/09/06 04:28:05;;;;;;;;;;;22.00;64.00;;;;;;5072416;28;1960;-69
2022/09/06 04:30:31;;;;;;;;;;;22.00;64.00;;;;;;5072478;28;1246;-70
2022/09/06 04:32:56;;;;;;;;;;;22.00;64.00;;;;;;5070947;28;1303;-70
2022/09/06 04:35:21;;;;;;;;;;;22.00;64.00;;;;;;5072115;28;1481;-70
2022/09/06 04:37:47;;;;;;;;;;;22.00;64.00;;;;;;5071096;28;1178;-70
2022/09/06 04:40:12;;;;;;;;;;;22.00;64.00;;;;;;5072509;28;1344;-68
2022/09/06 04:42:38;;;;;;;;;;;21.90;63.90;;;;;;5072101;28;1386;-68
2022/09/06 04:45:04;;;;;;;;;;;22.00;64.00;;;;;;5072492;28;1280;-68
2022/09/06 04:47:30;;;;;;;;;;;22.00;64.00;;;;;;5072184;28;1914;-68
2022/09/06 04:49:55;;;;;;;;;;;22.00;64.00;;;;;;5070830;28;1290;-68
2022/09/06 04:52:20;;;;;;;;;;;22.00;64.00;;;;;;5071226;28;1258;-68
2022/09/06 04:54:46;;;;;;;;;;;22.00;64.00;;;;;;5072301;28;1330;-68
2022/09/06 04:57:11;;;;;;;;;;;22.00;64.00;;;;;;5071569;28;1358;-68
2022/09/06 04:59:37;;;;;;;;;;;22.00;64.00;;;;;;5072393;28;1055;-68
2022/09/06 05:02:02;;;;;;;;;;;22.00;64.10;;;;;;5071557;28;1257;-68
2022/09/06 05:04:28;;;;;;;;;;;22.00;64.00;;;;;;5070570;28;1373;-66
2022/09/06 05:07:04;;;;;;;;;;;22.00;64.00;;;;;;5065649;28;1938;-66
2022/09/06 05:09:30;;;;;;;;;;;22.00;64.00;;;;;;5066915;28;1035;-66
2022/09/06 05:11:56;;;;;;;;;;;22.00;64.00;;;;;;5072900;28;1363;-67
2022/09/06 05:14:21;;;;;;;;;;;22.00;64.10;;;;;;5072846;28;1234;-67
2022/09/06 05:16:47;;;;;;;;;;;22.00;64.10;;;;;;5056423;28;1387;-67
2022/09/06 05:19:12;;;;;;;;;;;22.00;64.10;;;;;;5072856;28;1088;-67
2022/09/06 05:21:38;;;;;;;;;;;22.00;64.10;;;;;;5073075;28;1055;-67
2022/09/06 05:24:03;;;;;;;;;;;22.00;64.10;;;;;;5073602;28;1303;-67
2022/09/06 05:26:29;;;;;;;;;;;22.00;64.20;;;;;;5073986;28;1937;-70
2022/09/06 05:28:54;;;;;;;;;;;22.00;64.20;;;;;;5073999;28;1222;-69
2022/09/06 05:31:26;;;;;;;;;;;22.00;64.30;;;;;;5073241;28;1282;-69
2022/09/06 05:33:52;;;;;;;;;;;22.00;64.30;;;;;;5072409;28;1565;-68
2022/09/06 05:36:17;;;;;;;;;;;22.00;64.40;;;;;;5073459;28;1357;-72
2022/09/06 05:38:43;;;;;;;;;;;22.00;64.30;;;;;;5073346;28;1244;-70
2022/09/06 05:41:08;;;;;;;;;;;22.00;64.30;;;;;;5055131;28;1414;-70
2022/09/06 05:43:34;;;;;;;;;;;22.00;64.30;;;;;;5073467;28;1289;-69
2022/09/06 05:45:59;;;;;;;;;;;22.00;64.40;;;;;;5075978;28;1361;-67
2022/09/06 05:48:25;;;;;;;;;;;22.00;64.30;;;;;;5074008;28;1887;-69
2022/09/06 05:51:03;;;;;;;;;;;22.00;64.30;;;;;;5073473;28;1356;-68
2022/09/06 05:53:33;;;;;;;;;;;22.00;64.30;;;;;;5074082;28;1789;-66
2022/09/06 05:55:58;;;;;;;;;;;22.00;64.40;;;;;;5075482;28;1103;-69
2022/09/06 05:58:24;;;;;;;;;;;22.00;64.40;;;;;;5073945;28;1296;-70
2022/09/06 06:00:49;;;;;;;;;;;22.00;64.40;;;;;;5075379;28;1122;-69
2022/09/06 06:03:14;;;;;;;;;;;22.00;64.40;;;;;;5074517;28;1034;-66
2022/09/06 06:05:40;;;;;;;;;;;22.00;64.40;;;;;;5075061;28;1276;-67
2022/09/06 06:08:05;;;;;;;;;;;22.00;64.30;;;;;;5073827;28;1902;-67
2022/09/06 06:10:31;;;;;;;;;;;22.00;64.40;;;;;;5074876;28;1067;-68
2022/09/06 06:12:56;;;;;;;;;;;22.00;64.30;;;;;;5069818;28;1315;-68
2022/09/06 06:15:22;;;;;;;;;;;22.00;64.40;;;;;;5074707;28;1281;-68
2022/09/06 06:17:47;;;;;;;;;;;22.00;64.40;;;;;;5074686;28;1079;-67
2022/09/06 06:20:13;;;;;;;;;;;22.00;64.40;;;;;;5074521;28;1267;-68
2022/09/06 06:22:38;;;;;;;;;;;22.00;64.40;;;;;;5075064;28;1331;-67
2022/09/06 06:25:04;;;;;;;;;;;22.00;64.40;;;;;;5072062;28;1890;-69
2022/09/06 06:27:29;;;;;;;;;;;22.00;64.40;;;;;;5063615;28;1906;-67
2022/09/06 06:29:55;;;;;;;;;;;22.00;64.40;;;;;;5072904;28;1081;-67
2022/09/06 06:32:20;;;;;;;;;;;22.00;64.40;;;;;;5068907;28;1150;-69
2022/09/06 06:34:47;;;;;;;;;;;22.00;64.50;;;;;;5073788;28;1530;-68
2022/09/06 06:37:12;;;;;;;;;;;22.00;64.50;;;;;;5074321;28;1272;-68
2022/09/06 06:39:38;;;;;;;;;;;22.00;64.50;;;;;;5074563;28;1426;-69
2022/09/06 06:42:03;;;;;;;;;;;22.00;64.30;;;;;;5073871;28;1349;-71
2022/09/06 06:44:29;;;;;;;;;;;22.00;63.00;;;;;;5072983;28;1280;-69
2022/09/06 06:46:56;;;;;;;;;;;22.00;61.20;;;;;;5074401;28;1910;-70
2022/09/06 06:49:22;;;;;;;;;;;22.00;60.40;;;;;;5074390;28;1503;-70
2022/09/06 06:51:47;;;;;;;;;;;21.90;59.60;;;;;;5073121;28;1356;-68
2022/09/06 06:54:13;;;;;;;;;;;21.90;59.50;;;;;;5074117;28;1306;-69
2022/09/06 06:56:43;;;;;;;;;;;21.90;58.80;;;;;;5074209;28;1324;-69
2022/09/06 06:59:09;;;;;;;;;;;21.90;58.50;;;;;;5074411;28;1292;-69
2022/09/06 07:01:34;;;;;;;;;;;21.90;58.10;;;;;;5073314;28;1119;-71
2022/09/06 07:04:00;;;;;;;;;;;21.90;57.70;;;;;;5072112;28;1280;-69
2022/09/06 07:06:26;;;;;;;;;;;21.90;57.20;;;;;;5069378;28;2015;-70
2022/09/06 07:08:52;;;;;;;;;;;21.90;56.80;;;;;;5069731;28;1391;-69
2022/09/06 07:11:18;;;;;;;;;;;21.90;56.60;;;;;;5073272;28;1278;-69
2022/09/06 07:13:43;;;;;;;;;;;21.90;56.30;;;;;;5073493;28;1285;-69
2022/09/06 07:16:13;;;;;;;;;;;21.90;56.30;;;;;;5073848;28;1392;-70
2022/09/06 07:18:41;;;;;;;;;;;21.80;56.30;;;;;;5073949;28;1167;-72
2022/09/06 07:21:10;;;;;;;;;;;21.80;55.70;;;;;;5071711;28;1280;-70
2022/09/06 07:23:35;;;;;;;;;;;21.80;55.50;;;;;;5073391;28;1329;-70
2022/09/06 07:26:01;;;;;;;;;;;21.80;55.20;;;;;;5072900;28;1307;-72
2022/09/06 07:28:26;;;;;;;;;;;21.80;54.90;;;;;;5072787;28;1905;-72
2022/09/06 07:30:53;;;;;;;;;;;21.80;54.90;;;;;;5073392;28;1289;-71
2022/09/06 07:33:18;;;;;;;;;;;21.80;54.60;;;;;;5072382;28;1264;-69
2022/09/06 07:35:53;;;;;;;;;;;21.80;54.90;;;;;;5068123;22;3694;-67
2022/09/06 07:38:18;;;;;;;;;;;21.80;54.40;;;;;;5033583;28;1270;-68
2022/09/06 07:40:48;;;;;;;;;;;21.70;54.70;;;;;;5032659;28;1291;-68
2022/09/06 07:43:14;;;;;;;;;;;21.70;54.40;;;;;;5048245;28;1280;-67
2022/09/06 07:45:39;;;;;;;;;;;21.70;54.40;;;;;;5033484;28;1220;-67
2022/09/06 07:48:04;;;;;;;;;;;21.70;54.20;;;;;;5033469;28;1902;-68
2022/09/06 07:50:30;;;;;;;;;;;21.70;54.10;;;;;;5032966;28;1313;-67
2022/09/06 07:53:02;;;;;;;;;;;21.70;54.20;;;;;;5031142;28;1680;-67
2022/09/06 07:55:28;;;;;;;;;;;21.70;54.20;;;;;;5032147;28;1353;-68
2022/09/06 07:57:53;;;;;;;;;;;21.70;54.20;;;;;;5033527;28;1288;-68
2022/09/06 08:00:19;;;;;;;;;;;21.70;54.10;;;;;;5035489;28;1072;-68
2022/09/06 08:02:44;;;;;;;;;;;21.70;54.10;;;;;;5042862;28;921;-68
2022/09/06 08:05:09;;;;;;;;;;;21.70;54.10;;;;;;5033104;28;1350;-67
2022/09/06 08:07:35;;;;;;;;;;;21.70;54.20;;;;;;5033166;28;1953;-68
2022/09/06 08:10:01;;;;;;;;;;;21.70;53.90;;;;;;5033274;28;1331;-66
2022/09/06 08:12:27;;;;;;;;;;;21.70;53.70;;;;;;5031783;28;1397;-65
2022/09/06 08:14:53;;;;;;;;;;;21.70;54.00;;;;;;5031396;28;1354;-65
2022/09/06 08:17:19;;;;;;;;;;;21.70;53.60;;;;;;5033235;28;1248;-66
2022/09/06 08:19:44;;;;;;;;;;;21.70;53.60;;;;;;5033304;28;1296;-65
2022/09/06 08:22:10;;;;;;;;;;;21.70;53.90;;;;;;5032564;28;1292;-65
2022/09/06 08:24:35;;;;;;;;;;;21.60;54.30;;;;;;5032750;28;1278;-65
2022/09/06 08:27:01;;;;;;;;;;;21.70;54.00;;;;;;5027398;28;1947;-66
2022/09/06 08:29:27;;;;;;;;;;;21.70;54.40;;;;;;5027835;28;1104;-66
2022/09/06 08:31:52;;;;;;;;;;;21.70;53.90;;;;;;5032403;28;1254;-66
2022/09/06 08:34:18;;;;;;;;;;;21.70;54.10;;;;;;5032115;28;1444;-66
2022/09/06 08:36:44;;;;;;;;;;;21.70;54.30;;;;;;5032922;28;1268;-65
2022/09/06 08:39:09;;;;;;;;;;;21.70;54.30;;;;;;5031931;28;1396;-65
2022/09/06 08:41:48;;;;;;;;;;;21.70;54.10;;;;;;5031751;28;1319;-65
2022/09/06 08:44:19;;;;;;;;;;;21.70;54.50;;;;;;5031322;28;1303;-65
2022/09/06 08:46:50;;;;;;;;;;;21.70;54.50;;;;;;5031599;28;1902;-64
2022/09/06 08:49:15;;;;;;;;;;;21.70;54.90;;;;;;5030525;28;1315;-64
2022/09/06 08:51:58;;;;;;;;;;;21.70;54.30;;;;;;5032316;28;1302;-65
2022/09/06 08:54:26;;;;;;;;;;;21.70;54.10;;;;;;5032498;28;1765;-65
2022/09/06 08:56:59;;;;;;;;;;;21.70;54.20;;;;;;5027602;28;1302;-65
2022/09/06 08:59:25;;;;;;;;;;;21.70;54.20;;;;;;5030485;28;1193;-65
2022/09/06 09:01:53;;;;;;;;;;;21.70;54.10;;;;;;5043935;28;1097;-65
2022/09/06 09:04:19;;;;;;;;;;;21.70;54.60;;;;;;5031763;28;1266;-65
2022/09/06 09:06:45;;;;;;;;;;;21.70;54.30;;;;;;5030764;28;1952;-65
2022/09/06 09:09:12;;;;;;;;;;;21.70;54.20;;;;;;5032296;28;1322;-65
2022/09/06 09:11:38;;;;;;;;;;;21.70;54.20;;;;;;5030289;28;1284;-65
2022/09/06 09:14:06;;;;;;;;;;;21.70;54.30;;;;;;5030885;28;1272;-65
2022/09/06 09:16:32;;;;;;;;;;;21.70;53.90;;;;;;5032010;28;1296;-65
2022/09/06 09:18:58;;;;;;;;;;;21.70;54.20;;;;;;5031246;28;1323;-65
2022/09/06 09:21:24;;;;;;;;;;;21.70;54.40;;;;;;5031597;28;1261;-65
2022/09/06 09:23:53;;;;;;;;;;;21.70;54.40;;;;;;5025232;28;1659;-65
2022/09/06 09:26:18;;;;;;;;;;;21.70;54.40;;;;;;5030576;28;2353;-65
2022/09/06 09:29:03;;;;;;;;;;;21.70;54.40;;;;;;5026796;28;2361;-65
2022/09/06 09:31:32;;;;;;;;;;;21.70;54.30;;;;;;5022694;28;1342;-65
2022/09/06 09:34:01;;;;;;;;;;;21.70;54.20;;;;;;5024907;28;1446;-65
2022/09/06 09:36:29;;;;;;;;;;;21.70;54.40;;;;;;5031381;28;1113;-65
2022/09/06 09:38:55;;;;;;;;;;;21.70;54.60;;;;;;5031691;28;1357;-65
2022/09/06 09:41:26;;;;;;;;;;;21.70;54.60;;;;;;5029456;28;871;-66
2022/09/06 09:43:55;;;;;;;;;;;21.70;54.60;;;;;;5030079;28;1275;-65
2022/09/06 09:46:20;;;;;;;;;;;21.70;54.80;;;;;;5030504;28;823;-64
2022/09/06 09:49:04;;;;;;;;;;;21.70;54.60;;;;;;5031351;28;1965;-64
2022/09/06 09:51:31;;;;;;;;;;;21.70;54.50;;;;;;5032334;28;827;-65
2022/09/06 09:54:00;;;;;;;;;;;21.70;54.80;;;;;;5035302;28;1221;-65
2022/09/06 09:56:25;;;;;;;;;;;21.70;54.60;;;;;;5034487;28;895;-66
2022/09/06 09:58:51;;;;;;;;;;;21.70;54.40;;;;;;5034919;28;1146;-64
2022/09/06 10:01:16;;;;;;;;;;;21.70;54.50;;;;;;5022470;28;1787;-65
2022/09/06 10:03:42;;;;;;;;;;;21.70;54.70;;;;;;5031708;28;885;-65
2022/09/06 10:06:09;;;;;;;;;;;21.70;54.30;;;;;;5033037;28;1189;-65
2022/09/06 10:08:38;;;;;;;;;;;21.70;54.40;;;;;;5048381;28;1951;-64
2022/09/06 10:11:03;;;;;;;;;;;21.70;54.30;;;;;;5047351;28;846;-65
2022/09/06 10:13:29;;;;;;;;;;;21.70;54.40;;;;;;5032846;28;866;-66
2022/09/06 10:15:55;;;;;;;;;;;21.70;54.40;;;;;;5048376;28;1223;-66
2022/09/06 10:18:30;;;;;;;;;;;21.70;54.10;;;;;;5032618;28;1038;-66
2022/09/06 10:21:01;;;;;;;;;;;21.70;54.10;;;;;;5048739;28;902;-65
2022/09/06 10:23:32;;;;;;;;;;;21.70;54.40;;;;;;5034649;28;847;-65
2022/09/06 10:26:04;;;;;;;;;;;21.70;54.00;;;;;;5033484;28;1305;-65
2022/09/06 10:28:30;;;;;;;;;;;21.60;54.50;;;;;;5046423;28;2009;-65
2022/09/06 10:30:55;;;;;;;;;;;21.60;53.90;;;;;;5014637;28;893;-65
2022/09/06 10:33:39;;;;;;;;;;;21.70;54.30;;;;;;5014522;28;994;-65
2022/09/06 10:36:05;;;;;;;;;;;21.70;54.10;;;;;;5046121;28;1260;-65
2022/09/06 10:38:34;;;;;;;;;;;21.70;54.50;;;;;;5046382;28;966;-65
2022/09/06 10:41:18;;;;;;;;;;;21.70;54.70;;;;;;5013831;28;800;-65
2022/09/06 10:44:02;;;;;;;;;;;21.70;54.30;;;;;;5014539;28;1065;-65
2022/09/06 10:46:27;;;;;;;;;;;21.70;54.30;;;;;;5014550;28;939;-65
2022/09/06 10:48:53;;;;;;;;;;;21.70;54.40;;;;;;5042083;28;2293;-65
2022/09/06 10:51:22;;;;;;;;;;;21.60;54.20;;;;;;5020767;28;1236;-63
2022/09/06 10:53:49;;;;;;;;;;;21.70;54.30;;;;;;5022688;28;1262;-66
2022/09/06 10:56:33;;;;;;;;;;;21.70;54.20;;;;;;5024346;28;1346;-66
2022/09/06 10:59:14;;;;;;;;;;;21.70;54.00;;;;;;5022279;28;1228;-66
2022/09/06 11:01:40;;;;;;;;;;;21.70;53.80;;;;;;5022300;28;1217;-66
2022/09/06 11:04:08;;;;;;;;;;;21.70;53.20;;;;;;5022908;28;1306;-66
2022/09/06 11:06:34;;;;;;;;;;;21.70;52.60;;;;;;5021818;28;1170;-66
2022/09/06 11:08:59;;;;;;;;;;;21.70;52.50;;;;;;5022460;28;1522;-65
2022/09/06 11:11:44;;;;;;;;;;;21.70;53.20;;;;;;5023211;28;1317;-66
2022/09/06 11:14:11;;;;;;;;;;;21.70;53.40;;;;;;5020739;28;1308;-66
2022/09/06 11:16:50;;;;;;;;;;;21.70;53.50;;;;;;5013194;28;859;-66
2022/09/06 11:19:29;;;;;;;;;;;21.70;53.50;;;;;;5012279;28;848;-66
2022/09/06 11:22:07;;;;;;;;;;;21.70;53.60;;;;;;5013158;28;801;-66
2022/09/06 11:24:45;;;;;;;;;;;21.70;54.30;;;;;;5012417;28;1434;-66
2022/09/06 11:27:29;;;;;;;;;;;21.70;53.70;;;;;;5019897;28;1974;-66
2022/09/06 11:29:55;;;;;;;;;;;21.70;54.10;;;;;;5033625;28;875;-66
2022/09/06 11:32:23;;;;;;;;;;;21.70;54.30;;;;;;5032386;28;851;-65
2022/09/06 11:34:55;;;;;;;;;;;21.70;54.30;;;;;;5033039;28;1188;-66
2022/09/06 11:37:25;;;;;;;;;;;21.70;54.50;;;;;;5032014;28;962;-66
2022/09/06 11:40:23;;;;;;;;;;;21.70;54.40;;;;;;5033028;28;920;-65
2022/09/06 11:42:48;;;;;;;;;;;21.70;54.10;;;;;;5020462;28;1247;-66
2022/09/06 11:45:20;;;;;;;;;;;21.70;54.30;;;;;;5033093;28;1200;-65
2022/09/06 11:47:49;;;;;;;;;;;21.70;54.00;;;;;;5031536;28;1953;-66
2022/09/06 11:50:17;;;;;;;;;;;21.70;53.60;;;;;;5033006;28;846;-65
2022/09/06 11:53:03;;;;;;;;;;;21.70;53.80;;;;;;5032571;28;819;-65
2022/09/06 11:55:44;;;;;;;;;;;21.70;54.00;;;;;;5032197;28;1319;-66
2022/09/06 11:58:19;;;;;;;;;;;21.70;54.20;;;;;;5031625;28;843;-65
2022/09/06 12:00:45;;;;;;;;;;;21.70;54.30;;;;;;5022793;28;1275;-65
2022/09/06 12:03:37;;;;;;;;;;;21.70;54.30;;;;;;5032577;28;1084;-65
2022/09/06 12:06:16;;;;;;;;;;;21.70;54.30;;;;;;5024158;28;1268;-65
2022/09/06 12:08:42;;;;;;;;;;;21.70;54.30;;;;;;5032503;28;1969;-65
2022/09/06 12:11:26;;;;;;;;;;;21.70;54.40;;;;;;5047108;28;925;-66
2022/09/06 12:13:53;;;;;;;;;;;21.70;54.60;;;;;;5032119;28;1224;-65
2022/09/06 12:16:19;;;;;;;;;;;21.70;54.60;;;;;;5047154;28;2229;-65
2022/09/06 12:18:47;;;;;;;;;;;21.70;54.50;;;;;;5029819;28;1141;-65
2022/09/06 12:21:31;;;;;;;;;;;21.80;54.40;;;;;;5026268;28;1090;-66
2022/09/06 12:23:57;;;;;;;;;;;21.70;54.60;;;;;;5011425;28;1232;-65
2022/09/06 12:26:41;;;;;;;;;;;21.70;54.60;;;;;;5012662;28;1159;-66
2022/09/06 12:29:10;;;;;;;;;;;21.70;54.50;;;;;;5030953;28;1018;-66
2022/09/06 12:31:37;;;;;;;;;;;21.70;54.50;;;;;;5046632;28;1088;-65
2022/09/06 12:34:10;;;;;;;;;;;21.70;54.50;;;;;;5032485;28;1223;-65
2022/09/06 12:36:36;;;;;;;;;;;21.70;54.60;;;;;;5032448;28;851;-65
2022/09/06 12:39:03;;;;;;;;;;;21.80;54.80;;;;;;5047135;28;1388;-65
2022/09/06 12:41:29;;;;;;;;;;;21.70;54.80;;;;;;5031581;28;878;-64
2022/09/06 12:43:55;;;;;;;;;;;21.70;54.90;;;;;;5047542;28;1346;-64
2022/09/06 12:46:21;;;;;;;;;;;21.70;54.70;;;;;;5032438;28;834;-65
2022/09/06 12:48:58;;;;;;;;;;;21.70;54.80;;;;;;5047721;28;1967;-64
2022/09/06 12:51:24;;;;;;;;;;;21.80;54.50;;;;;;5031526;28;799;-65
2022/09/06 12:53:50;;;;;;;;;;;21.80;54.60;;;;;;5023456;28;1120;-64
2022/09/06 12:56:18;;;;;;;;;;;21.80;54.50;;;;;;5012003;28;1229;-64
2022/09/06 12:58:43;;;;;;;;;;;21.80;54.50;;;;;;5012728;28;871;-65
2022/09/06 13:01:11;;;;;;;;;;;21.80;54.60;;;;;;5021102;28;1095;-63
2022/09/06 13:03:38;;;;;;;;;;;21.80;54.20;;;;;;5031787;28;820;-64
2022/09/06 13:06:04;;;;;;;;;;;21.80;54.20;;;;;;5031692;28;1207;-63
2022/09/06 13:08:32;;;;;;;;;;;21.80;54.20;;;;;;5030749;28;2143;-64
2022/09/06 13:10:57;;;;;;;;;;;21.80;54.30;;;;;;5019474;28;2184;-64
2022/09/06 13:13:23;;;;;;;;;;;21.80;54.30;;;;;;5041818;28;1138;-65
2022/09/06 13:15:49;;;;;;;;;;;21.80;54.00;;;;;;5028731;28;1386;-65
2022/09/06 13:18:21;;;;;;;;;;;21.80;54.40;;;;;;5043680;28;1143;-64
2022/09/06 13:20:56;;;;;;;;;;;21.80;54.60;;;;;;5023265;28;1292;-65
2022/09/06 13:23:22;;;;;;;;;;;21.80;54.50;;;;;;5047094;28;1063;-65
2022/09/06 13:25:48;;;;;;;;;;;21.80;54.40;;;;;;5031951;28;1201;-64
2022/09/06 13:28:29;;;;;;;;;;;21.80;54.20;;;;;;5020334;28;1910;-64
2022/09/06 13:31:02;;;;;;;;;;;21.80;54.30;;;;;;5015419;28;871;-64
2022/09/06 13:33:27;;;;;;;;;;;21.80;54.30;;;;;;5015822;28;938;-64
2022/09/06 13:36:11;;;;;;;;;;;21.80;54.70;;;;;;5053585;22;1910;-69
2022/09/06 13:38:37;;;;;;;;;;;21.80;53.80;;;;;;5035686;28;1019;-69
2022/09/06 13:41:03;;;;;;;;;;;21.80;53.80;;;;;;5034765;28;974;-69
2022/09/06 13:43:32;;;;;;;;;;;21.80;54.10;;;;;;5031999;28;2257;-70
2022/09/06 13:46:04;;;;;;;;;;;21.80;54.00;;;;;;5024466;28;1387;-69
2022/09/06 13:48:29;;;;;;;;;;;21.80;53.80;;;;;;5027570;28;1972;-69
2022/09/06 13:50:54;;;;;;;;;;;21.80;53.80;;;;;;5023783;28;1234;-69
2022/09/06 13:53:20;;;;;;;;;;;21.80;53.90;;;;;;5019392;28;1864;-69
2022/09/06 13:55:46;;;;;;;;;;;21.80;53.80;;;;;;5016068;28;1354;-69
2022/09/06 13:58:11;;;;;;;;;;;21.80;53.70;;;;;;5048446;28;1235;-69
2022/09/06 14:00:39;;;;;;;;;;;21.80;53.60;;;;;;5020839;28;2212;-69
2022/09/06 14:03:06;;;;;;;;;;;21.80;53.40;;;;;;5027477;28;1048;-69
2022/09/06 14:05:33;;;;;;;;;;;21.80;53.70;;;;;;5027997;28;1323;-69
2022/09/06 14:07:58;;;;;;;;;;;21.80;53.90;;;;;;5032693;28;1947;-69
2022/09/06 14:10:24;;;;;;;;;;;21.80;53.80;;;;;;5032715;28;862;-69
2022/09/06 14:12:50;;;;;;;;;;;21.80;53.80;;;;;;5024044;28;1143;-69
2022/09/06 14:15:15;;;;;;;;;;;21.80;53.80;;;;;;5025988;28;1847;-68
2022/09/06 14:17:41;;;;;;;;;;;21.80;53.90;;;;;;5024327;28;1252;-68
2022/09/06 14:20:06;;;;;;;;;;;21.80;53.90;;;;;;5022710;28;1371;-69
2022/09/06 14:22:32;;;;;;;;;;;21.80;54.40;;;;;;5022948;28;1153;-68
2022/09/06 14:24:57;;;;;;;;;;;21.80;54.50;;;;;;5022194;28;1364;-68
2022/09/06 14:27:23;;;;;;;;;;;21.80;55.20;;;;;;5022973;28;1965;-70
2022/09/06 14:29:48;;;;;;;;;;;21.80;54.40;;;;;;5021662;28;1203;-69
2022/09/06 14:32:14;;;;;;;;;;;21.80;54.00;;;;;;5021901;28;1109;-70
2022/09/06 14:34:39;;;;;;;;;;;21.80;54.00;;;;;;5020857;28;1571;-70
2022/09/06 14:37:05;;;;;;;;;;;21.80;54.00;;;;;;5021577;28;1211;-70